Time;durP1;ratioP1;P1;durP2;ratioP2;P2;SDS_P1;SDS_P2;PMS_P1;PMS_P2;Temp;Humidity;BMP_temperature;BMP_pressure;BME280_temperature;BME280_humidity;BME280_pressure;Samples;Min_cycle;Max_cycle;Signal;HPM_P1;HPM_P2
2021/06/14 00:01:37;;;;;;;10.65;4.00;;;;;;;;;;10286065;28;20499;-71
2021/06/14 00:06:33;;;;;;;10.25;3.97;;;;;;;;;;10294237;28;20208;-74
2021/06/14 00:11:30;;;;;;;11.73;4.22;;;;;;;;;;10278959;28;20438;-73
2021/06/14 00:16:26;;;;;;;10.07;4.65;;;;;;;;;;10272159;28;20131;-70
2021/06/14 00:21:23;;;;;;;10.73;4.40;;;;;;;;;;10276453;28;20129;-70
2021/06/14 00:26:20;;;;;;;8.80;4.00;;;;;;;;;;10283920;28;20044;-69
2021/06/14 00:31:16;;;;;;;10.77;5.20;;;;;;;;;;10276947;28;20040;-70
2021/06/14 00:36:12;;;;;;;8.45;3.95;;;;;;;;;;10282721;28;20503;-72
2021/06/14 00:41:11;;;;;;;8.23;4.43;;;;;;;;;;10286688;28;20415;-73
2021/06/14 00:46:08;;;;;;;9.57;4.70;;;;;;;;;;10263905;28;20110;-72
2021/06/14 00:51:06;;;;;;;9.45;4.18;;;;;;;;;;10275372;28;20556;-70
2021/06/14 00:56:04;;;;;;;10.40;4.20;;;;;;;;;;10279373;28;20137;-69
2021/06/14 01:01:01;;;;;;;10.43;4.47;;;;;;;;;;10284801;28;20049;-69
2021/06/14 01:05:58;;;;;;;10.80;4.45;;;;;;;;;;11279522;23;20060;-72
2021/06/14 01:10:55;;;;;;;8.40;4.05;;;;;;;;;;10224726;28;20041;-68
2021/06/14 01:15:58;;;;;;;11.27;4.50;;;;;;;;;;10227668;28;20131;-71
2021/06/14 01:21:00;;;;;;;11.80;4.53;;;;;;;;;;10236373;28;20418;-69
2021/06/14 01:26:01;;;;;;;13.25;4.47;;;;;;;;;;10236748;28;20110;-72
2021/06/14 01:30:58;;;;;;;8.82;4.18;;;;;;;;;;10234656;28;20144;-71
2021/06/14 01:35:56;;;;;;;11.00;4.80;;;;;;;;;;10239463;28;20059;-69
2021/06/14 01:40:54;;;;;;;9.60;4.30;;;;;;;;;;10237763;28;20090;-70
2021/06/14 01:45:53;;;;;;;9.35;4.95;;;;;;;;;;10245621;28;20103;-71
2021/06/14 01:50:51;;;;;;;11.88;4.80;;;;;;;;;;10235586;28;20103;-73
2021/06/14 01:55:47;;;;;;;10.88;4.43;;;;;;;;;;10246037;28;20037;-73
2021/06/14 02:00:44;;;;;;;10.90;5.05;;;;;;;;;;10234874;28;20490;-72
2021/06/14 02:05:42;;;;;;;9.50;4.50;;;;;;;;;;10235470;28;20065;-72
2021/06/14 02:10:38;;;;;;;12.65;5.15;;;;;;;;;;10248466;28;20462;-72
2021/06/14 02:15:34;;;;;;;10.27;5.03;;;;;;;;;;10242208;28;20070;-72
2021/06/14 02:20:31;;;;;;;12.70;5.22;;;;;;;;;;10247921;28;20041;-73
2021/06/14 02:25:28;;;;;;;10.63;4.80;;;;;;;;;;10247236;28;20121;-73
2021/06/14 02:30:25;;;;;;;8.63;5.25;;;;;;;;;;10228654;28;20533;-73
2021/06/14 02:35:22;;;;;;;11.70;5.32;;;;;;;;;;10244108;28;20539;-73
2021/06/14 02:40:23;;;;;;;15.90;5.55;;;;;;;;;;10236387;28;20077;-73
2021/06/14 02:45:19;;;;;;;10.20;4.93;;;;;;;;;;10240385;28;20077;-74
2021/06/14 02:50:17;;;;;;;11.48;5.40;;;;;;;;;;10231543;28;20049;-72
2021/06/14 02:55:15;;;;;;;14.55;5.90;;;;;;;;;;10245068;28;20042;-71
2021/06/14 03:00:12;;;;;;;17.00;6.63;;;;;;;;;;10244418;28;20049;-73
2021/06/14 03:05:09;;;;;;;16.27;5.50;;;;;;;;;;10239443;28;20048;-73
2021/06/14 03:10:06;;;;;;;12.35;5.38;;;;;;;;;;10227824;28;20057;-73
2021/06/14 03:15:05;;;;;;;11.13;5.20;;;;;;;;;;10233841;28;20087;-73
2021/06/14 03:20:01;;;;;;;13.32;5.28;;;;;;;;;;10245495;28;20137;-72
2021/06/14 03:24:58;;;;;;;11.40;5.30;;;;;;;;;;10254049;28;20549;-73
2021/06/14 03:29:54;;;;;;;11.00;5.22;;;;;;;;;;10226940;28;20188;-75
2021/06/14 03:34:52;;;;;;;9.68;5.07;;;;;;;;;;10239265;28;20041;-75
2021/06/14 03:39:48;;;;;;;10.15;5.05;;;;;;;;;;10244578;28;20136;-75
2021/06/14 03:44:44;;;;;;;8.73;5.15;;;;;;;;;;10224915;28;20083;-74
2021/06/14 03:49:41;;;;;;;10.52;5.32;;;;;;;;;;10239169;28;20076;-74
2021/06/14 03:54:37;;;;;;;12.90;5.50;;;;;;;;;;10245415;28;20500;-74
2021/06/14 03:59:33;;;;;;;12.95;5.47;;;;;;;;;;10242077;28;20038;-72
2021/06/14 04:04:43;;;;;;;11.88;5.47;;;;;;;;;;10232138;28;20071;-73
2021/06/14 04:09:42;;;;;;;14.73;5.60;;;;;;;;;;10230236;28;20499;-72
2021/06/14 04:14:42;;;;;;;8.50;5.18;;;;;;;;;;10230828;28;20071;-73
2021/06/14 04:19:39;;;;;;;12.05;5.82;;;;;;;;;;10234126;28;20088;-74
2021/06/14 04:24:36;;;;;;;10.75;5.38;;;;;;;;;;10249315;28;20045;-73
2021/06/14 04:29:32;;;;;;;9.95;4.63;;;;;;;;;;10226119;28;20082;-73
2021/06/14 04:34:29;;;;;;;12.85;6.05;;;;;;;;;;10238887;28;20045;-67
2021/06/14 04:39:28;;;;;;;11.95;5.13;;;;;;;;;;10241087;28;20042;-69
2021/06/14 04:44:25;;;;;;;11.38;4.50;;;;;;;;;;10245203;28;20069;-67
2021/06/14 04:49:21;;;;;;;12.07;5.63;;;;;;;;;;10231564;28;20403;-69
2021/06/14 04:54:18;;;;;;;8.90;4.40;;;;;;;;;;10237255;28;20057;-69
2021/06/14 04:59:14;;;;;;;13.30;4.85;;;;;;;;;;10234686;28;20095;-73
2021/06/14 05:04:10;;;;;;;16.35;5.03;;;;;;;;;;10235846;28;20077;-72
2021/06/14 05:09:07;;;;;;;10.95;4.70;;;;;;;;;;10232140;28;20502;-69
2021/06/14 05:14:03;;;;;;;10.20;4.60;;;;;;;;;;10237097;28;20129;-69
2021/06/14 05:18:59;;;;;;;11.07;4.57;;;;;;;;;;10249359;28;20036;-70
2021/06/14 05:23:55;;;;;;;10.40;4.28;;;;;;;;;;10228320;28;20108;-68
2021/06/14 05:28:52;;;;;;;10.40;4.38;;;;;;;;;;10230925;28;20128;-68
2021/06/14 05:33:48;;;;;;;10.40;4.07;;;;;;;;;;10230972;28;20103;-69
2021/06/14 05:38:45;;;;;;;16.23;4.75;;;;;;;;;;10230481;28;20454;-69
2021/06/14 05:43:41;;;;;;;10.35;4.22;;;;;;;;;;10226888;28;20364;-70
2021/06/14 05:48:37;;;;;;;10.18;4.65;;;;;;;;;;10224063;28;20069;-68
2021/06/14 05:53:34;;;;;;;10.45;4.57;;;;;;;;;;10222916;28;21448;-69
2021/06/14 05:58:30;;;;;;;12.60;3.97;;;;;;;;;;10223179;28;20065;-71
2021/06/14 06:03:26;;;;;;;22.92;4.50;;;;;;;;;;10228438;28;20114;-69
2021/06/14 06:08:23;;;;;;;11.18;3.97;;;;;;;;;;10225276;28;20124;-69
2021/06/14 06:13:19;;;;;;;8.93;4.22;;;;;;;;;;10231494;28;20053;-69
2021/06/14 06:18:15;;;;;;;10.98;3.70;;;;;;;;;;10228645;28;20096;-69
2021/06/14 06:23:12;;;;;;;9.50;3.88;;;;;;;;;;10234241;28;20049;-69
2021/06/14 06:28:08;;;;;;;9.07;3.15;;;;;;;;;;10219903;28;20049;-69
2021/06/14 06:33:08;;;;;;;10.40;3.42;;;;;;;;;;10221755;28;20561;-69
2021/06/14 06:38:05;;;;;;;11.63;4.40;;;;;;;;;;10223289;28;20103;-70
2021/06/14 06:43:01;;;;;;;8.60;3.10;;;;;;;;;;10219149;28;20522;-68
2021/06/14 06:47:58;;;;;;;9.52;3.22;;;;;;;;;;10229330;28;20064;-68
2021/06/14 06:52:55;;;;;;;9.25;3.00;;;;;;;;;;10223789;28;20078;-68
2021/06/14 06:57:51;;;;;;;10.75;3.20;;;;;;;;;;10229606;28;20045;-68
2021/06/14 07:02:48;;;;;;;13.00;3.50;;;;;;;;;;10228923;28;20418;-68
2021/06/14 07:08:02;;;;;;;7.97;3.28;;;;;;;;;;10238020;28;20040;-67
2021/06/14 07:12:59;;;;;;;9.95;3.38;;;;;;;;;;10237627;28;20045;-66
2021/06/14 07:17:56;;;;;;;7.40;2.88;;;;;;;;;;10227166;28;20040;-67
2021/06/14 07:22:52;;;;;;;10.68;3.88;;;;;;;;;;10230950;28;20045;-67
2021/06/14 07:27:49;;;;;;;12.30;3.15;;;;;;;;;;10229457;28;20050;-66
2021/06/14 07:32:57;;;;;;;9.98;3.45;;;;;;;;;;10225662;28;20056;-66
2021/06/14 07:37:54;;;;;;;12.13;3.75;;;;;;;;;;10231263;28;20468;-67
2021/06/14 07:42:50;;;;;;;8.38;3.47;;;;;;;;;;10229592;28;20486;-66
2021/06/14 07:47:47;;;;;;;11.60;3.60;;;;;;;;;;10233959;28;20103;-67
2021/06/14 07:52:44;;;;;;;12.73;4.10;;;;;;;;;;10241002;28;20045;-69
2021/06/14 07:57:41;;;;;;;13.98;4.60;;;;;;;;;;10242488;28;20107;-67
2021/06/14 08:02:39;;;;;;;12.18;3.65;;;;;;;;;;10236260;28;20493;-67
2021/06/14 08:07:36;;;;;;;13.57;4.82;;;;;;;;;;10229627;28;20107;-67
2021/06/14 08:12:33;;;;;;;10.25;4.53;;;;;;;;;;10233803;28;20495;-65
2021/06/14 08:17:30;;;;;;;14.88;4.90;;;;;;;;;;10234636;28;20037;-69
2021/06/14 08:22:49;;;;;;;9.68;3.72;;;;;;;;;;10234691;28;20128;-71
2021/06/14 08:27:46;;;;;;;15.98;4.72;;;;;;;;;;10234112;28;20077;-68
2021/06/14 08:32:43;;;;;;;11.90;3.97;;;;;;;;;;10239239;28;20049;-68
2021/06/14 08:37:40;;;;;;;8.75;3.90;;;;;;;;;;10237145;28;20115;-69
2021/06/14 08:42:36;;;;;;;11.40;3.83;;;;;;;;;;10232682;28;20042;-68
2021/06/14 08:47:35;;;;;;;11.05;4.15;;;;;;;;;;10230602;28;20642;-69
2021/06/14 08:52:31;;;;;;;11.07;4.05;;;;;;;;;;10238868;28;20041;-67
2021/06/14 08:57:28;;;;;;;11.05;3.78;;;;;;;;;;10237648;28;20072;-70
2021/06/14 09:02:24;;;;;;;9.43;3.75;;;;;;;;;;10242465;28;20482;-68
2021/06/14 09:07:23;;;;;;;10.32;3.97;;;;;;;;;;10228013;28;20534;-67
2021/06/14 09:12:19;;;;;;;9.60;4.15;;;;;;;;;;10238721;28;20045;-68
2021/06/14 09:17:17;;;;;;;8.02;3.80;;;;;;;;;;10238064;28;20482;-68
2021/06/14 09:22:16;;;;;;;8.57;3.72;;;;;;;;;;10237276;28;20115;-68
2021/06/14 09:27:13;;;;;;;8.07;3.63;;;;;;;;;;10235464;28;20128;-68
2021/06/14 09:32:16;;;;;;;15.63;4.20;;;;;;;;;;10231547;28;20457;-69
2021/06/14 09:37:15;;;;;;;10.02;3.63;;;;;;;;;;10238438;28;20414;-67
2021/06/14 09:42:12;;;;;;;9.55;3.38;;;;;;;;;;10231436;28;20050;-68
2021/06/14 09:47:10;;;;;;;8.63;3.53;;;;;;;;;;10232465;28;20049;-70
2021/06/14 09:52:18;;;;;;;10.18;4.15;;;;;;;;;;10232761;28;20497;-67
2021/06/14 09:57:23;;;;;;;13.65;4.38;;;;;;;;;;10230501;28;20191;-68
2021/06/14 10:02:20;;;;;;;7.95;4.03;;;;;;;;;;10229743;28;20096;-68
2021/06/14 10:07:16;;;;;;;12.68;4.35;;;;;;;;;;10231774;28;20084;-68
2021/06/14 10:12:27;;;;;;;9.27;3.60;;;;;;;;;;10233688;28;20176;-69
2021/06/14 10:17:31;;;;;;;6.68;3.00;;;;;;;;;;10234147;28;20221;-69
2021/06/14 10:22:28;;;;;;;8.70;3.15;;;;;;;;;;10236190;28;20095;-69
2021/06/14 10:27:25;;;;;;;9.90;2.83;;;;;;;;;;10227459;28;20076;-69
2021/06/14 10:32:21;;;;;;;8.55;3.08;;;;;;;;;;10224311;28;20087;-70
2021/06/14 10:37:18;;;;;;;8.60;2.90;;;;;;;;;;10228870;28;20134;-70
2021/06/14 10:42:14;;;;;;;10.40;2.85;;;;;;;;;;10231326;28;20072;-70
2021/06/14 10:47:13;;;;;;;6.03;2.30;;;;;;;;;;10230696;28;20053;-69
2021/06/14 10:52:09;;;;;;;6.45;2.63;;;;;;;;;;10227788;28;20398;-69
2021/06/14 10:57:12;;;;;;;6.88;3.50;;;;;;;;;;10223415;28;20566;-68
2021/06/14 11:02:08;;;;;;;;;;;;;;;;;;10221734;28;20115;-69
2021/06/14 11:07:04;;;;;;;7.57;2.63;;;;;;;;;;10224571;28;19925;-69
2021/06/14 11:12:28;;;;;;;7.10;2.65;;;;;;;;;;10223154;28;20041;-69
2021/06/14 11:17:24;;;;;;;9.43;2.80;;;;;;;;;;10226318;28;20457;-69
2021/06/14 11:22:31;;;;;;;9.70;3.25;;;;;;;;;;10230461;28;20041;-69
2021/06/14 11:27:38;;;;;;;9.02;2.95;;;;;;;;;;10231898;28;20098;-69
2021/06/14 11:32:37;;;;;;;7.90;3.25;;;;;;;;;;10239410;28;20068;-69
2021/06/14 11:37:37;;;;;;;7.53;3.15;;;;;;;;;;10239739;28;20533;-69
2021/06/14 11:42:53;;;;;;;7.07;2.78;;;;;;;;;;10231460;28;20095;-69
2021/06/14 11:47:51;;;;;;;6.63;2.67;;;;;;;;;;10234914;28;20068;-69
2021/06/14 11:53:09;;;;;;;7.38;2.92;;;;;;;;;;10233689;28;20100;-68
2021/06/14 11:58:07;;;;;;;7.93;3.13;;;;;;;;;;10231612;28;20045;-70
2021/06/14 12:03:23;;;;;;;10.38;3.05;;;;;;;;;;10232718;28;20253;-70
2021/06/14 12:08:24;;;;;;;8.02;2.90;;;;;;;;;;10228152;28;20073;-71
2021/06/14 12:13:21;;;;;;;9.95;3.60;;;;;;;;;;10243834;28;20045;-69
2021/06/14 12:18:18;;;;;;;10.23;3.30;;;;;;;;;;10239880;28;20483;-69
2021/06/14 12:23:16;;;;;;;7.93;2.83;;;;;;;;;;10237537;28;20053;-68
2021/06/14 12:28:18;;;;;;;9.73;3.03;;;;;;;;;;10240183;28;20182;-68
2021/06/14 12:33:14;;;;;;;;;;;;;;;;;;10243965;28;20042;-68
2021/06/14 12:38:11;;;;;;;8.50;2.53;;;;;;;;;;10243108;28;20044;-68
2021/06/14 12:43:09;;;;;;;7.10;3.28;;;;;;;;;;10238949;28;20506;-67
2021/06/14 12:48:07;;;;;;;6.55;2.95;;;;;;;;;;10237509;28;20049;-66
2021/06/14 12:53:05;;;;;;;6.15;2.70;;;;;;;;;;10243353;28;20049;-67
2021/06/14 12:58:06;;;;;;;7.13;2.70;;;;;;;;;;10237945;28;20061;-68
2021/06/14 13:03:03;;;;;;;9.35;2.88;;;;;;;;;;10238044;28;20455;-68
2021/06/14 13:08:04;;;;;;;8.65;2.95;;;;;;;;;;10229912;28;20452;-69
2021/06/14 13:13:11;;;;;;;6.88;2.80;;;;;;;;;;10232590;28;20059;-67
2021/06/14 13:18:08;;;;;;;7.50;2.80;;;;;;;;;;10233597;28;20048;-68
2021/06/14 13:23:09;;;;;;;5.32;2.15;;;;;;;;;;10227423;28;20043;-68
2021/06/14 13:28:07;;;;;;;7.63;2.65;;;;;;;;;;10231258;28;20045;-67
2021/06/14 13:38:20;;;;;;;5.20;2.30;;;;;;;;;;10151281;28;20030;-68
2021/06/14 13:43:27;;;;;;;4.47;2.13;;;;;;;;;;10190735;28;20069;-69
2021/06/14 13:48:23;;;;;;;6.82;3.03;;;;;;;;;;10195350;28;20065;-66
2021/06/14 13:53:25;;;;;;;7.78;3.03;;;;;;;;;;10192368;28;20097;-67
2021/06/14 13:58:35;;;;;;;5.80;2.50;;;;;;;;;;10194079;28;20069;-67
2021/06/14 14:03:32;;;;;;;6.13;2.10;;;;;;;;;;10182990;28;20046;-67
2021/06/14 14:08:28;;;;;;;6.03;3.03;;;;;;;;;;10198486;28;20466;-67
2021/06/14 14:13:36;;;;;;;10.98;2.95;;;;;;;;;;10201981;28;20053;-66
2021/06/14 14:18:35;;;;;;;11.75;2.55;;;;;;;;;;10199185;28;20074;-70
2021/06/14 14:23:32;;;;;;;11.20;3.00;;;;;;;;;;10191634;28;20034;-67
2021/06/14 14:28:30;;;;;;;6.03;2.72;;;;;;;;;;10187007;28;20104;-68
2021/06/14 14:33:27;;;;;;;5.07;2.15;;;;;;;;;;10194469;28;20052;-67
2021/06/14 14:38:23;;;;;;;6.55;2.67;;;;;;;;;;10187309;28;20101;-69
2021/06/14 14:43:28;;;;;;;9.40;3.25;;;;;;;;;;10183924;28;20050;-67
2021/06/14 14:48:25;;;;;;;7.55;2.75;;;;;;;;;;10193472;28;20050;-66
2021/06/14 14:53:24;;;;;;;6.25;3.00;;;;;;;;;;10183521;28;20192;-69
2021/06/14 14:58:21;;;;;;;6.90;2.63;;;;;;;;;;10193641;28;20046;-70
2021/06/14 15:03:18;;;;;;;7.95;2.63;;;;;;;;;;10189838;28;20042;-67
2021/06/14 15:08:15;;;;;;;5.50;2.22;;;;;;;;;;10191012;28;20042;-67
2021/06/14 15:13:12;;;;;;;6.38;2.72;;;;;;;;;;10198934;28;20129;-67
2021/06/14 15:18:08;;;;;;;8.43;2.30;;;;;;;;;;10190444;28;20035;-67
2021/06/14 15:23:06;;;;;;;5.72;2.30;;;;;;;;;;10191797;28;20054;-70
2021/06/14 15:28:03;;;;;;;8.00;2.38;;;;;;;;;;10190575;28;20518;-67
2021/06/14 15:33:00;;;;;;;8.13;2.80;;;;;;;;;;10187045;28;20041;-69
2021/06/14 15:37:58;;;;;;;6.45;2.53;;;;;;;;;;10187077;28;20107;-68
2021/06/14 15:42:56;;;;;;;6.03;2.08;;;;;;;;;;10189836;28;20121;-66
2021/06/14 15:47:53;;;;;;;8.10;3.80;;;;;;;;;;10191360;28;20064;-68
2021/06/14 15:52:50;;;;;;;6.43;2.28;;;;;;;;;;10186501;28;20050;-66
2021/06/14 15:57:47;;;;;;;7.32;3.38;;;;;;;;;;10187485;28;20038;-71
2021/06/14 16:02:44;;;;;;;7.45;2.20;;;;;;;;;;10185329;28;20034;-67
2021/06/14 16:07:41;;;;;;;8.20;2.55;;;;;;;;;;10187683;28;20042;-67
2021/06/14 16:12:38;;;;;;;5.75;2.35;;;;;;;;;;10189823;28;20042;-67
2021/06/14 16:17:35;;;;;;;9.40;2.75;;;;;;;;;;10193523;28;20056;-67
2021/06/14 16:22:31;;;;;;;7.95;2.13;;;;;;;;;;10193178;28;20096;-68
2021/06/14 16:27:28;;;;;;;9.93;2.55;;;;;;;;;;10178305;28;20076;-69
2021/06/14 16:32:24;;;;;;;9.70;2.92;;;;;;;;;;10187658;28;20384;-65
2021/06/14 16:37:26;;;;;;;6.15;3.00;;;;;;;;;;10181555;28;20145;-67
2021/06/14 16:42:23;;;;;;;6.60;2.15;;;;;;;;;;10188997;28;20507;-71
2021/06/14 16:47:19;;;;;;;4.80;1.92;;;;;;;;;;10178705;28;20158;-66
2021/06/14 16:52:15;;;;;;;6.43;2.63;;;;;;;;;;10188536;28;20132;-67
2021/06/14 16:57:12;;;;;;;5.65;2.30;;;;;;;;;;10197316;28;20536;-66
2021/06/14 17:02:08;;;;;;;6.38;3.45;;;;;;;;;;10190965;28;20042;-66
2021/06/14 17:07:05;;;;;;;6.05;2.50;;;;;;;;;;10192584;28;20512;-66
2021/06/14 17:12:01;;;;;;;6.32;2.25;;;;;;;;;;10187450;28;20446;-67
2021/06/14 17:16:58;;;;;;;6.95;2.58;;;;;;;;;;10204424;28;20046;-66
2021/06/14 17:21:54;;;;;;;8.40;2.53;;;;;;;;;;10192987;28;20133;-67
2021/06/14 17:26:51;;;;;;;5.28;2.70;;;;;;;;;;10186441;28;20072;-67
2021/06/14 17:31:48;;;;;;;5.40;2.28;;;;;;;;;;10191221;28;20137;-67
2021/06/14 17:36:45;;;;;;;4.95;2.38;;;;;;;;;;10189139;28;20041;-68
2021/06/14 17:41:41;;;;;;;5.88;2.78;;;;;;;;;;10186628;28;20105;-68
2021/06/14 17:46:42;;;;;;;9.80;3.17;;;;;;;;;;10186092;28;20045;-68
2021/06/14 17:51:40;;;;;;;8.45;3.15;;;;;;;;;;10195855;28;20053;-68
2021/06/14 17:56:38;;;;;;;9.02;3.70;;;;;;;;;;10192428;28;20053;-69
2021/06/14 18:01:34;;;;;;;7.15;3.70;;;;;;;;;;10196922;28;20038;-67
2021/06/14 18:06:32;;;;;;;6.38;3.38;;;;;;;;;;10189969;28;20479;-68
2021/06/14 18:11:29;;;;;;;7.82;3.63;;;;;;;;;;10188229;28;20069;-68
2021/06/14 18:16:25;;;;;;;6.95;3.90;;;;;;;;;;10183065;28;20046;-68
2021/06/14 18:21:22;;;;;;;9.65;4.15;;;;;;;;;;10204594;28;20506;-68
2021/06/14 18:26:18;;;;;;;14.32;4.80;;;;;;;;;;10181962;28;20061;-71
2021/06/14 18:31:17;;;;;;;12.48;4.80;;;;;;;;;;10190609;28;20061;-68
2021/06/14 18:36:14;;;;;;;9.43;4.28;;;;;;;;;;10195518;28;20133;-69
2021/06/14 18:41:13;;;;;;;16.83;5.53;;;;;;;;;;10203030;28;20041;-67
2021/06/14 18:46:10;;;;;;;14.25;5.80;;;;;;;;;;10182989;28;20038;-67
2021/06/14 18:51:07;;;;;;;12.82;5.03;;;;;;;;;;10188646;28;20042;-68
2021/06/14 18:56:04;;;;;;;11.27;5.57;;;;;;;;;;10196267;28;20046;-68
2021/06/14 19:01:01;;;;;;;12.18;5.95;;;;;;;;;;10201040;28;20069;-71
2021/06/14 19:05:59;;;;;;;16.33;8.68;;;;;;;;;;10190500;28;20045;-68
2021/06/14 19:10:57;;;;;;;12.15;6.60;;;;;;;;;;10188117;28;20546;-66
2021/06/14 19:15:53;;;;;;;13.82;6.68;;;;;;;;;;10187409;28;20074;-68
2021/06/14 19:20:49;;;;;;;16.85;5.65;;;;;;;;;;10187175;28;20037;-69
2021/06/14 19:25:46;;;;;;;14.15;6.93;;;;;;;;;;10191665;28;20092;-68
2021/06/14 19:30:42;;;;;;;10.20;5.05;;;;;;;;;;10194643;28;20809;-69
2021/06/14 19:35:38;;;;;;;13.00;5.95;;;;;;;;;;10176788;28;20111;-68
2021/06/14 19:40:35;;;;;;;11.88;6.10;;;;;;;;;;10185569;28;20114;-68
2021/06/14 19:45:31;;;;;;;12.40;5.63;;;;;;;;;;10178461;28;20088;-68
2021/06/14 19:50:27;;;;;;;11.07;4.70;;;;;;;;;;10196332;28;20129;-68
2021/06/14 19:55:24;;;;;;;8.73;4.63;;;;;;;;;;10200429;28;20551;-69
2021/06/14 20:00:20;;;;;;;10.82;6.25;;;;;;;;;;10199746;28;20921;-68
2021/06/14 20:05:17;;;;;;;12.05;6.10;;;;;;;;;;10200316;28;20193;-70
2021/06/14 20:10:14;;;;;;;11.95;6.35;;;;;;;;;;10214343;28;20096;-69
2021/06/14 20:15:11;;;;;;;12.05;6.60;;;;;;;;;;10198540;28;20547;-67
2021/06/14 20:20:09;;;;;;;11.88;5.60;;;;;;;;;;10194224;28;20137;-69
2021/06/14 20:25:06;;;;;;;11.38;5.80;;;;;;;;;;10199184;28;20046;-69
2021/06/14 20:30:07;;;;;;;15.35;6.93;;;;;;;;;;10193221;28;20621;-70
2021/06/14 20:35:04;;;;;;;18.67;7.80;;;;;;;;;;10197269;28;20077;-69
2021/06/14 20:40:00;;;;;;;16.63;8.48;;;;;;;;;;10202141;28;20057;-68
2021/06/14 20:44:59;;;;;;;16.52;7.85;;;;;;;;;;10196994;28;20041;-68
2021/06/14 20:49:56;;;;;;;16.00;8.65;;;;;;;;;;10194342;28;20045;-68
2021/06/14 20:54:55;;;;;;;11.85;8.73;;;;;;;;;;10181317;28;20081;-69
2021/06/14 20:59:51;;;;;;;18.73;9.68;;;;;;;;;;10191395;28;20050;-68
2021/06/14 21:04:48;;;;;;;18.92;9.48;;;;;;;;;;10193553;28;20132;-69
2021/06/14 21:09:45;;;;;;;14.65;7.70;;;;;;;;;;10197898;28;20507;-69
2021/06/14 21:14:41;;;;;;;78.97;45.25;;;;;;;;;;10183889;28;20579;-70
2021/06/14 21:19:38;;;;;;;12.30;8.07;;;;;;;;;;10177697;28;20506;-67
2021/06/14 21:24:36;;;;;;;13.95;9.07;;;;;;;;;;10178360;28;20100;-69
2021/06/14 21:29:33;;;;;;;18.30;10.32;;;;;;;;;;10185925;28;20046;-69
2021/06/14 21:34:29;;;;;;;15.90;10.52;;;;;;;;;;10189810;28;20073;-69
2021/06/14 21:39:30;;;;;;;16.05;10.52;;;;;;;;;;10193093;28;20512;-69
2021/06/14 21:44:27;;;;;;;18.42;10.13;;;;;;;;;;10203066;28;20073;-70
2021/06/14 21:49:23;;;;;;;19.75;11.30;;;;;;;;;;10200675;28;20038;-68
2021/06/14 21:54:19;;;;;;;21.35;11.73;;;;;;;;;;10184658;28;20081;-67
2021/06/14 21:59:16;;;;;;;19.17;12.18;;;;;;;;;;10185788;28;20183;-67
2021/06/14 22:04:14;;;;;;;21.02;11.82;;;;;;;;;;10194016;28;20042;-67
2021/06/14 22:09:11;;;;;;;19.85;11.43;;;;;;;;;;10196518;28;20514;-69
2021/06/14 22:14:10;;;;;;;21.15;12.20;;;;;;;;;;10184009;28;20458;-69
2021/06/14 22:19:07;;;;;;;20.05;12.32;;;;;;;;;;10198498;28;20087;-69
2021/06/14 22:24:04;;;;;;;24.45;13.70;;;;;;;;;;10185768;28;20480;-67
2021/06/14 22:29:00;;;;;;;21.45;12.40;;;;;;;;;;10187376;28;20775;-68
2021/06/14 22:33:57;;;;;;;26.73;14.23;;;;;;;;;;10182738;28;20065;-69
2021/06/14 22:38:53;;;;;;;24.75;15.52;;;;;;;;;;10196705;28;20480;-68
2021/06/14 22:43:49;;;;;;;18.85;12.38;;;;;;;;;;10182460;28;20073;-66
2021/06/14 22:48:46;;;;;;;24.42;15.45;;;;;;;;;;10197339;28;20683;-67
2021/06/14 22:53:42;;;;;;;32.90;17.55;;;;;;;;;;10193371;28;20503;-67
2021/06/14 22:58:38;;;;;;;24.35;13.82;;;;;;;;;;10191463;28;20478;-69
2021/06/14 23:03:34;;;;;;;28.05;14.15;;;;;;;;;;10182620;28;20145;-69
2021/06/14 23:08:31;;;;;;;21.73;12.25;;;;;;;;;;10189253;28;20042;-69
2021/06/14 23:13:30;;;;;;;20.38;13.07;;;;;;;;;;10185387;28;20478;-69
2021/06/14 23:18:27;;;;;;;27.90;12.68;;;;;;;;;;10202499;28;20125;-68
2021/06/14 23:23:23;;;;;;;21.20;13.57;;;;;;;;;;10187556;28;20043;-68
2021/06/14 23:28:19;;;;;;;23.23;12.93;;;;;;;;;;10190422;28;20483;-68
2021/06/14 23:33:16;;;;;;;20.75;12.13;;;;;;;;;;10191689;28;20137;-68
2021/06/14 23:38:12;;;;;;;25.08;12.55;;;;;;;;;;10196717;28;20052;-67
2021/06/14 23:43:09;;;;;;;22.05;12.00;;;;;;;;;;10196381;28;20500;-68
2021/06/14 23:48:05;;;;;;;23.80;13.35;;;;;;;;;;10187461;28;20111;-68
2021/06/14 23:53:01;;;;;;;29.67;13.25;;;;;;;;;;10181158;28;20049;-69
2021/06/14 23:57:58;;;;;;;22.17;11.27;;;;;;;;;;10181749;28;20093;-67
